Flight Track Log - Related Links

Times and Time Zones

All times are in EDT time to prevent confusion due to time zone crossing. See the SKW6345 flight status page for this flight to view local times or setup timezone preferences in your user account.

Time Position Orientation Groundspeed Altitude Reporting Facility
EDT Latitude Longitude Course Direction KTS MPH feet Rate Location/Type
Tue 00:23:42 39.8833 -104.5833 77° East 180 207 6,700  Level Denver TRACON
Tue 00:24:42 39.9000 -104.5167 72° East 239 275 8,500 1,667 Climbing Denver TRACON
Tue 00:25:48 39.9167 -104.4167 78° East 281 323 10,200 1,525 Climbing Denver TRACON
Tue 00:26:00 39.9990 -104.0343 79° East  Level Estimated
Tue 00:26:40 39.9386 -104.3078 75° East 322 371 11,500  Level Denver Center
Tue 00:27:00 40.0160 -103.8698 82° East  Level FlightAware Approximate
Tue 00:27:41 39.9650 -104.1811 75° East 357 411 13,200  Level Denver Center
Tue 00:28:00 40.0498 -103.7096 77° East  Level Estimated
Tue 00:28:41 39.9828 -104.0467 80° East 373 429 15,200  Level Denver Center
Tue 00:29:42 39.9978 -103.9067 82° East 388 447 17,100 2,066 Climbing Denver Center
Tue 00:30:43 40.0203 -103.7644 78° East 398 458 19,400 1,820 Climbing Denver Center
Tue 00:31:44 40.0436 -103.6308 77° East 393 452 20,800 1,525 Climbing Denver Center
Tue 00:32:45 40.0683 -103.4803 78° East 420 483 22,500 1,574 Climbing Denver Center
Tue 00:33:46 40.0931 -103.3264 78° East 433 498 24,000 1,488 Climbing Denver Center
Tue 00:34:46 40.1181 -103.1694 78° East 441 507 25,500 1,339 Climbing Denver Center
Tue 00:35:47 40.1439 -103.0097 78° East 451 519 26,700 1,475 Climbing Denver Center
Tue 00:36:48 40.1739 -102.8144 79° East 456 525 28,500 1,377 Climbing Denver Center
Tue 00:37:49 40.1989 -102.6522 79° East 463 533 29,500 992 Climbing Denver Center
Tue 00:38:49 40.2242 -102.4919 78° East 468 539 30,500 992 Climbing Denver Center
Tue 00:39:50 40.2486 -102.3306 79° East 473 544 31,500 1,033 Climbing Denver Center
Tue 00:40:51 40.2772 -102.1414 79° East 475 547 32,600 992 Climbing Denver Center
Tue 00:41:51 40.3014 -101.9786 79° East 475 547 33,500 942 Climbing Denver Center
Tue 00:42:52 40.3272 -101.8172 78° East 474 545 34,500 738 Climbing Denver Center
Tue 00:43:53 40.3531 -101.6272 80° East 475 547 35,000 248 Climbing Denver Center
Tue 00:44:53 40.3764 -101.4647 79° East 474 545 35,000 298 Level Denver Center
Tue 00:45:54 40.3997 -101.3075 79° East 465 535 35,600 885 Climbing Denver Center
Tue 00:46:55 40.4317 -101.1272 77° East 458 527 36,800 1,091 Climbing Denver Center
Tue 00:47:55 40.4614 -100.9764 75° East 450 518 37,800 1,041 Climbing Denver Center
Tue 00:48:56 40.4958 -100.8019 75° East 447 514 38,900 590 Climbing Denver Center
Tue 00:49:57 40.5250 -100.6542 75° East 442 509 39,000 50 Climbing Denver Center
Tue 00:50:57 40.5550 -100.5006 76° East 455 524 39,000  Level Denver Center
Tue 00:51:58 40.5897 -100.3183 76° East 463 533 39,000  Level Denver Center
Tue 00:52:58 40.6206 -100.1600 76° East 467 537 39,000  Level Denver Center
Tue 00:53:59 40.6506 -100.0003 76° East 470 541 39,000  Level Denver Center
Tue 00:55:00 40.6817 -99.8344 76° East 469 540 39,000  Level Denver Center
Tue 00:56:00 40.7128 -99.6692 76° East 466 536 39,000  Level Denver Center
Tue 00:57:01 40.7431 -99.5028 76° East 468 539 39,000  Level Denver Center
Tue 00:58:01 40.7733 -99.3356 77° East 470 541 39,000  Level Denver Center
Tue 00:59:02 40.8033 -99.1692 77° East 469 540 39,000  Level Denver Center
Tue 01:00:02 40.8358 -98.9883 77° East 474 545 39,000  Level Denver Center
Tue 01:01:02 40.8700 -98.7978 77° East 477 549 39,000  Level Denver Center
Tue 01:02:03 40.8983 -98.6264 78° East 483 556 39,000  Level Denver Center
Tue 01:03:03 40.9294 -98.4561 76° East 483 556 39,000  Level Denver Center
Tue 01:04:16 40.9647 -98.2508 77° East 482 555 39,000  Level Minneapolis Center
Tue 01:05:16 40.9939 -98.0800 77° East 480 552 39,000  Level Minneapolis Center
Tue 01:06:17 41.0222 -97.9067 78° East 482 555 39,000  Level Minneapolis Center
Tue 01:07:17 41.0511 -97.7353 77° East 479 551 39,000  Level Minneapolis Center
Tue 01:08:17 41.0797 -97.5619 78° East 481 554 39,000  Level Minneapolis Center
Tue 01:09:18 41.1103 -97.3794 77° East 479 551 39,000  Level Minneapolis Center
Tue 01:10:18 41.1372 -97.2061 78° East 480 552 39,000  Level Minneapolis Center
Tue 01:11:18 41.1661 -97.0339 77° East 479 551 39,000  Level Minneapolis Center
Tue 01:12:19 41.1936 -96.8611 78° East 480 552 39,000  Level Minneapolis Center
Tue 01:13:19 41.2208 -96.6892 78° East 478 550 39,000  Level Minneapolis Center
Tue 01:14:19 41.2483 -96.5161 78° East 479 551 39,000  Level Minneapolis Center
Tue 01:15:19 41.2750 -96.3444 78° East 478 550 39,000  Level Minneapolis Center
Tue 01:16:20 41.2989 -96.1800 79° East 479 551 39,000  Level Minneapolis Center
Tue 01:17:20 41.3242 -96.0072 79° East 478 550 39,000  Level Minneapolis Center
Tue 01:18:20 41.3503 -95.8344 79° East 476 548 39,000  Level Minneapolis Center
Tue 01:19:21 41.3753 -95.6617 79° East 476 548 39,000  Level Minneapolis Center
Tue 01:20:21 41.4000 -95.4956 79° East 476 548 39,000  Level Minneapolis Center
Tue 01:21:21 41.4256 -95.3228 79° East 477 549 39,000  Level Minneapolis Center
Tue 01:22:21 41.4506 -95.1481 79° East 478 550 39,000  Level Minneapolis Center
Tue 01:23:22 41.4747 -94.9764 79° East 475 547 39,000 -149 Level Minneapolis Center
Tue 01:24:22 41.4997 -94.8036 79° East 475 547 38,700 -750 Descending Minneapolis Center
Tue 01:25:22 41.5225 -94.6311 80° East 472 543 37,500 -1,200 Descending Minneapolis Center
Tue 01:26:22 41.5456 -94.4597 80° East 471 542 36,300 -1,240 Descending Minneapolis Center
Tue 01:27:23 41.5692 -94.2850 80° East 476 548 35,000 -1,388 Descending Minneapolis Center
Tue 01:28:23 41.5964 -94.0822 80° East 483 556 33,500 -1,500 Descending Minneapolis Center
Tue 01:29:23 41.6192 -93.9042 80° East 487 560 32,000 -1,900 Descending Minneapolis Center
Tue 01:30:23 41.6433 -93.7289 79° East 485 558 29,700 -2,281 Descending Minneapolis Center
Tue 01:31:24 41.6644 -93.5564 81° East 477 549 27,400 -2,114 Descending Minneapolis Center
Tue 01:32:08 41.6781 -93.4494 80° East 480 552 26,000 -2,135 Descending Minneapolis Center
Tue 01:33:08 41.7019 -93.2708 80° East 488 562 23,700 -2,300 Descending Minneapolis Center
Tue 01:34:08 41.7225 -93.0989 81° East 479 551 21,400 -2,300 Descending Minneapolis Center
Tue 01:35:08 41.7428 -92.9328 81° East 465 535 19,100 -2,281 Descending Minneapolis Center
Tue 01:36:09 41.7631 -92.7689 81° East 443 510 16,800 -2,281 Descending Minneapolis Center
Tue 01:37:09 41.7808 -92.6192 81° East 422 486 14,500 -1,951 Descending Minneapolis Center
Tue 01:38:12 41.7981 -92.4611 82° East 364 419 12,800 -1,463 Descending Chicago Center
Tue 01:39:12 41.8122 -92.3478 80° East 322 371 11,500 -1,500 Descending Chicago Center
Tue 01:40:12 41.8356 -92.2483 72° East 290 334 9,800 -1,736 Descending Chicago Center
Tue 01:41:13 41.8600 -92.1483 72° East 284 327 8,000 -1,438 Descending Chicago Center
Tue 01:42:13 41.8836 -92.0514 72° East 285 328 6,900 -1,450 Descending Chicago Center
Tue 01:43:13 41.8883 -91.9653 86° East 241 277 5,100 -1,750 Descending Chicago Center
Tue 01:44:13 41.8861 -91.8847 92° East 223 257 3,400 -1,400 Descending Chicago Center
Tue 01:45:13 41.8864 -91.8256 90° East 177 204 2,300 -950 Descending Chicago Center
Tue 01:46:13 41.8853 -91.7697 92° East 157 181 1,500 -700 Descending Chicago Center
Tue 01:47:13 41.8842 -91.7078 91° East 157 181 900 -600 Descending Chicago Center

Login

Don't have an account? Register now (free) for customized features, flight alerts, and more!